createdAt,value
2018-04-27T00:01:44.685Z,5.27
2018-04-27T00:04:12.223Z,4.50
2018-04-27T00:06:39.790Z,2.73
2018-04-27T00:09:07.336Z,3.90
2018-04-27T00:11:34.955Z,6.73
2018-04-27T00:14:02.511Z,4.97
2018-04-27T00:16:30.098Z,3.40
2018-04-27T00:18:57.686Z,2.67
2018-04-27T00:21:25.298Z,4.60
2018-04-27T00:23:53.616Z,2.97
2018-04-27T00:26:21.223Z,8.57
2018-04-27T00:28:49.544Z,4.53
2018-04-27T00:31:17.121Z,3.77
2018-04-27T00:33:44.675Z,4.90
2018-04-27T00:36:12.303Z,3.03
2018-04-27T00:38:39.887Z,4.10
2018-04-27T00:41:07.458Z,3.90
2018-04-27T00:43:35.141Z,4.37
2018-04-27T00:46:03.431Z,4.53
2018-04-27T00:48:31.779Z,3.23
2018-04-27T00:50:59.361Z,3.37
2018-04-27T00:53:26.947Z,4.73
2018-04-27T00:55:54.507Z,3.57
2018-04-27T00:58:22.119Z,5.13
2018-04-27T01:00:49.683Z,4.77
2018-04-27T01:03:17.291Z,5.17
2018-04-27T01:05:44.863Z,3.47
2018-04-27T01:08:12.422Z,5.40
2018-04-27T01:10:40.032Z,4.70
2018-04-27T01:13:07.637Z,4.03
2018-04-27T01:15:36.276Z,3.17
2018-04-27T01:18:03.835Z,2.80
2018-04-27T01:20:31.418Z,3.23
2018-04-27T01:22:59.770Z,3.23
2018-04-27T01:25:27.339Z,6.20
2018-04-27T01:27:54.946Z,5.63
2018-04-27T01:30:22.534Z,5.67
2018-04-27T01:32:50.091Z,4.10
2018-04-27T01:35:18.431Z,5.50
2018-04-27T01:37:45.990Z,5.80
2018-04-27T01:40:13.593Z,3.63
2018-04-27T01:42:41.163Z,3.47
2018-04-27T01:45:08.735Z,3.13
2018-04-27T01:47:36.284Z,5.17
2018-04-27T01:50:03.887Z,3.30
2018-04-27T01:52:32.202Z,3.87
2018-04-27T01:54:59.748Z,5.23
2018-04-27T01:57:27.341Z,2.87
2018-04-27T01:59:54.899Z,3.73
2018-04-27T02:02:22.490Z,6.33
2018-04-27T02:04:50.127Z,4.07
2018-04-27T02:07:17.752Z,4.23
2018-04-27T02:09:45.285Z,6.90
2018-04-27T02:12:13.587Z,4.67
2018-04-27T02:14:41.891Z,5.13
2018-04-27T02:17:09.430Z,4.33
2018-04-27T02:19:36.953Z,4.23
2018-04-27T02:22:04.509Z,5.70
2018-04-27T02:24:32.796Z,4.37
2018-04-27T02:27:00.353Z,4.00
2018-04-27T02:29:28.650Z,3.87
2018-04-27T02:31:56.167Z,4.87
2018-04-27T02:34:23.777Z,5.27
2018-04-27T02:36:51.330Z,4.13
2018-04-27T02:39:18.874Z,4.40
2018-04-27T02:41:46.422Z,3.03
2018-04-27T02:44:14.753Z,5.23
2018-04-27T02:46:42.286Z,4.40
2018-04-27T02:49:09.837Z,7.23
2018-04-27T02:51:37.358Z,4.43
2018-04-27T02:54:04.927Z,7.17
2018-04-27T02:56:33.227Z,3.73
2018-04-27T02:59:00.798Z,4.47
2018-04-27T03:01:28.326Z,4.03
2018-04-27T03:03:56.630Z,3.60
2018-04-27T03:06:24.178Z,3.80
2018-04-27T03:08:51.733Z,5.03
2018-04-27T03:11:20.081Z,4.77
2018-04-27T03:13:47.705Z,2.60
2018-04-27T03:16:15.179Z,4.57
2018-04-27T03:18:42.705Z,3.60
2018-04-27T03:21:11.022Z,5.00
2018-04-27T03:23:38.563Z,3.50
2018-04-27T03:26:06.109Z,4.37
2018-04-27T03:28:33.676Z,3.07
2018-04-27T03:31:01.212Z,5.03
2018-04-27T03:33:28.803Z,3.73
2018-04-27T03:35:56.325Z,3.63
2018-04-27T03:38:24.654Z,7.17
2018-04-27T03:40:52.192Z,4.57
2018-04-27T03:43:20.517Z,4.40
2018-04-27T03:45:48.039Z,4.93
2018-04-27T03:48:15.581Z,3.10
2018-04-27T03:50:43.145Z,3.90
2018-04-27T03:53:11.444Z,4.37
2018-04-27T03:55:38.977Z,4.93
2018-04-27T03:58:06.505Z,2.90
2018-04-27T04:00:45.719Z,5.53
2018-04-27T04:03:25.070Z,5.00
2018-04-27T04:05:53.419Z,4.70
2018-04-27T04:08:21.031Z,3.03
2018-04-27T04:10:48.519Z,3.47
2018-04-27T04:13:16.074Z,5.00
2018-04-27T04:15:43.624Z,4.47
2018-04-27T04:18:11.145Z,3.20
2018-04-27T04:20:39.485Z,4.80
2018-04-27T04:23:06.999Z,6.10
2018-04-27T04:25:34.553Z,4.53
2018-04-27T04:28:02.124Z,6.13
2018-04-27T04:30:29.673Z,5.47
2018-04-27T04:32:57.205Z,7.17
2018-04-27T04:35:25.533Z,4.13
2018-04-27T04:37:53.913Z,5.27
2018-04-27T04:40:22.233Z,5.63
2018-04-27T04:42:49.768Z,2.90
2018-04-27T04:45:17.277Z,5.47
2018-04-27T04:47:45.612Z,4.23
2018-04-27T04:50:13.141Z,4.53
2018-04-27T04:52:40.767Z,6.93
2018-04-27T04:55:08.224Z,3.67
2018-04-27T04:57:36.545Z,4.30
2018-04-27T05:00:04.065Z,5.63
2018-04-27T05:02:32.363Z,5.00
2018-04-27T05:04:59.922Z,6.37
2018-04-27T05:07:27.463Z,7.27
2018-04-27T05:09:55.761Z,3.43
2018-04-27T05:12:23.326Z,5.30
2018-04-27T05:14:50.883Z,5.87
2018-04-27T05:17:18.449Z,6.27
2018-04-27T05:20:00.857Z,4.70
2018-04-27T05:22:28.413Z,9.27
2018-04-27T05:24:55.942Z,7.10
2018-04-27T05:27:24.283Z,7.83
2018-04-27T05:29:52.595Z,4.37
2018-04-27T05:32:21.667Z,5.80
2018-04-27T05:34:50.002Z,6.30
2018-04-27T05:37:17.518Z,8.37
2018-04-27T05:39:45.063Z,8.23
2018-04-27T05:42:12.590Z,7.30
2018-04-27T05:44:41.460Z,11.90
2018-04-27T05:47:09.014Z,8.23
2018-04-27T05:49:36.539Z,12.33
2018-04-27T05:52:04.890Z,7.73
2018-04-27T05:54:32.461Z,8.07
2018-04-27T05:57:00.202Z,11.37
2018-04-27T05:59:28.583Z,7.53
2018-04-27T06:01:56.109Z,7.53
2018-04-27T06:04:24.437Z,11.73
2018-04-27T06:06:52.408Z,8.13
2018-04-27T06:09:20.004Z,9.50
2018-04-27T06:11:48.305Z,8.17
2018-04-27T06:14:15.856Z,6.80
2018-04-27T06:16:43.398Z,6.53
2018-04-27T06:19:11.730Z,8.23
2018-04-27T06:21:39.309Z,9.83
2018-04-27T06:24:06.873Z,7.83
2018-04-27T06:26:34.422Z,7.20
2018-04-27T06:29:02.178Z,9.30
2018-04-27T06:31:29.739Z,6.73
2018-04-27T06:33:57.267Z,7.07
2018-04-27T06:36:24.817Z,12.77
2018-04-27T06:38:53.175Z,13.27
2018-04-27T06:41:21.503Z,12.23
2018-04-27T06:43:49.028Z,9.70
2018-04-27T06:46:16.583Z,9.17
2018-04-27T06:48:44.125Z,9.33
2018-04-27T06:51:11.970Z,8.67
2018-04-27T06:53:39.607Z,8.77
2018-04-27T06:56:07.204Z,10.40
2018-04-27T06:58:34.750Z,9.83
2018-04-27T07:01:02.290Z,8.20
2018-04-27T07:03:31.130Z,14.20
2018-04-27T07:05:58.701Z,9.30
2018-04-27T07:08:26.253Z,8.67
2018-04-27T07:10:53.842Z,9.43
2018-04-27T07:13:21.417Z,6.20
2018-04-27T07:15:48.957Z,12.87
2018-04-27T07:18:16.528Z,12.03
2018-04-27T07:20:44.848Z,10.20
2018-04-27T07:23:13.190Z,9.87
2018-04-27T07:25:40.759Z,10.27
2018-04-27T07:28:08.305Z,7.93
2018-04-27T07:30:35.882Z,8.00
2018-04-27T07:33:03.461Z,9.97
2018-04-27T07:35:31.815Z,6.53
2018-04-27T07:37:59.465Z,10.27
2018-04-27T07:40:27.038Z,9.47
2018-04-27T07:42:54.580Z,8.47
2018-04-27T07:45:22.319Z,8.27
2018-04-27T07:47:49.725Z,9.53
2018-04-27T07:50:17.273Z,10.37
2018-04-27T07:52:44.817Z,7.67
2018-04-27T07:55:12.360Z,8.87
2018-04-27T07:57:40.017Z,9.50
2018-04-27T08:00:07.570Z,8.90
2018-04-27T08:02:35.158Z,8.37
2018-04-27T08:05:03.252Z,11.70
2018-04-27T08:07:30.886Z,10.00
2018-04-27T08:09:59.252Z,10.47
2018-04-27T08:12:26.895Z,8.67
2018-04-27T08:14:54.478Z,8.53
2018-04-27T08:17:22.047Z,7.60
2018-04-27T08:19:49.610Z,10.57
2018-04-27T08:22:17.124Z,6.03
2018-04-27T08:24:45.485Z,11.83
2018-04-27T08:27:13.064Z,9.87
2018-04-27T08:29:41.375Z,10.37
2018-04-27T08:32:09.721Z,11.60
2018-04-27T08:34:38.019Z,8.97
2018-04-27T08:37:05.573Z,8.87
2018-04-27T08:39:33.106Z,9.40
2018-04-27T08:42:01.419Z,11.80
2018-04-27T08:44:29.185Z,9.33
2018-04-27T08:46:56.742Z,9.17
2018-04-27T08:49:24.290Z,10.07
2018-04-27T08:51:51.972Z,8.33
2018-04-27T08:54:21.138Z,9.70
2018-04-27T08:56:48.673Z,6.87
2018-04-27T08:59:16.253Z,8.73
2018-04-27T09:01:44.541Z,9.30
2018-04-27T09:04:12.135Z,9.63
2018-04-27T09:06:39.682Z,8.83
2018-04-27T09:09:08.043Z,7.27
2018-04-27T09:11:35.594Z,7.20
2018-04-27T09:14:03.173Z,9.77
2018-04-27T09:16:30.750Z,8.43
2018-04-27T09:18:59.077Z,6.67
2018-04-27T09:21:26.657Z,6.17
2018-04-27T09:23:54.971Z,8.90
2018-04-27T09:26:22.530Z,8.57
2018-04-27T09:28:50.053Z,7.00
2018-04-27T09:31:17.631Z,7.03
2018-04-27T09:33:45.160Z,6.77
2018-04-27T09:36:13.498Z,6.80
2018-04-27T09:38:42.166Z,5.40
2018-04-27T09:41:10.734Z,5.60
2018-04-27T09:43:38.225Z,7.70
2018-04-27T09:46:06.503Z,7.30
2018-04-27T09:48:34.135Z,8.53
2018-04-27T09:51:01.859Z,7.77
2018-04-27T09:53:30.156Z,6.87
2018-04-27T09:55:57.849Z,8.77
2018-04-27T09:58:25.401Z,8.47
2018-04-27T10:00:52.983Z,5.83
2018-04-27T10:03:20.564Z,6.90
2018-04-27T10:05:48.241Z,8.50
2018-04-27T10:08:15.864Z,9.43
2018-04-27T10:10:43.398Z,10.43
2018-04-27T10:13:10.970Z,9.00
2018-04-27T10:15:39.465Z,8.00
2018-04-27T10:18:07.016Z,5.50
2018-04-27T10:20:34.656Z,6.67
2018-04-27T10:23:03.175Z,6.50
2018-04-27T10:25:30.826Z,7.40
2018-04-27T10:27:58.426Z,7.67
2018-04-27T10:30:26.730Z,8.70
2018-04-27T10:32:54.306Z,7.63
2018-04-27T10:35:22.001Z,7.93
2018-04-27T10:37:49.542Z,8.43
2018-04-27T10:40:17.097Z,7.27
2018-04-27T10:42:44.660Z,7.83
2018-04-27T10:45:12.221Z,6.57
2018-04-27T10:47:39.745Z,5.13
2018-04-27T10:50:07.310Z,10.60
2018-04-27T10:52:34.841Z,6.17
2018-04-27T10:55:03.171Z,9.23
2018-04-27T10:57:31.541Z,6.83
2018-04-27T10:59:59.890Z,7.87
2018-04-27T11:02:28.193Z,10.67
2018-04-27T11:04:55.841Z,7.30
2018-04-27T11:07:23.449Z,7.93
2018-04-27T11:09:51.082Z,8.70
2018-04-27T11:12:19.464Z,5.97
2018-04-27T11:14:47.793Z,7.77
2018-04-27T11:17:16.142Z,7.20
2018-04-27T11:19:43.694Z,8.30
2018-04-27T11:22:11.699Z,7.30
2018-04-27T11:24:40.014Z,8.20
2018-04-27T11:27:10.500Z,6.93
2018-04-27T11:29:38.143Z,9.60
2018-04-27T11:32:05.750Z,7.70
2018-04-27T11:34:33.311Z,7.00
2018-04-27T11:37:00.871Z,6.60
2018-04-27T11:39:28.421Z,8.00
2018-04-27T11:41:56.745Z,9.03
2018-04-27T11:44:25.055Z,4.53
2018-04-27T11:46:52.582Z,5.97
2018-04-27T11:49:20.378Z,6.67
2018-04-27T11:51:47.915Z,7.70
2018-04-27T11:54:15.500Z,6.43
2018-04-27T11:56:43.860Z,5.17
2018-04-27T11:59:11.404Z,8.17
2018-04-27T12:01:39.651Z,8.93
2018-04-27T12:04:07.220Z,6.60
2018-04-27T12:06:34.785Z,4.43
2018-04-27T12:09:02.355Z,4.33
2018-04-27T12:11:29.900Z,4.43
2018-04-27T12:13:57.459Z,3.50
2018-04-27T12:16:24.986Z,4.20
2018-04-27T12:18:52.550Z,3.97
2018-04-27T12:21:20.893Z,2.13
2018-04-27T12:23:48.601Z,2.97
2018-04-27T12:26:16.102Z,4.27
2018-04-27T12:28:43.726Z,4.47
2018-04-27T12:31:11.383Z,3.90
2018-04-27T12:33:38.987Z,4.50
2018-04-27T12:36:06.564Z,3.50
2018-04-27T12:38:34.118Z,5.20
2018-04-27T12:41:01.706Z,4.93
2018-04-27T12:43:29.285Z,4.97
2018-04-27T12:45:56.833Z,4.47
2018-04-27T12:48:25.183Z,3.43
2018-04-27T12:50:55.973Z,3.33
2018-04-27T12:53:24.310Z,4.67
2018-04-27T12:55:52.739Z,3.37
2018-04-27T12:58:20.392Z,2.20
2018-04-27T13:00:50.073Z,3.60
2018-04-27T13:03:18.497Z,4.77
2018-04-27T13:05:46.040Z,3.93
2018-04-27T13:08:13.631Z,3.13
2018-04-27T13:10:41.197Z,2.93
2018-04-27T13:13:08.901Z,3.47
2018-04-27T13:15:37.218Z,2.67
2018-04-27T13:18:04.810Z,2.50
2018-04-27T13:20:32.361Z,3.80
2018-04-27T13:22:59.999Z,2.40
2018-04-27T13:25:27.526Z,8.47
2018-04-27T13:27:55.953Z,2.93
2018-04-27T13:30:24.916Z,2.23
2018-04-27T13:32:52.562Z,3.70
2018-04-27T13:35:20.173Z,3.17
2018-04-27T13:37:47.781Z,4.60
2018-04-27T13:40:15.331Z,3.50
2018-04-27T13:42:42.896Z,6.50
2018-04-27T13:45:10.522Z,3.30
2018-04-27T13:47:42.561Z,4.93
2018-04-27T13:50:12.970Z,2.60
2018-04-27T13:52:40.528Z,1.93
2018-04-27T13:55:08.077Z,2.37
2018-04-27T13:57:35.630Z,2.50
2018-04-27T14:00:03.329Z,4.67
2018-04-27T14:02:30.865Z,3.07
2018-04-27T14:04:58.433Z,2.87
2018-04-27T14:07:26.003Z,4.10
2018-04-27T14:09:53.566Z,5.10
2018-04-27T14:12:21.199Z,2.60
2018-04-27T14:14:48.781Z,3.30
2018-04-27T14:17:16.310Z,3.33
2018-04-27T14:19:43.870Z,3.63
2018-04-27T14:22:11.422Z,5.27
2018-04-27T14:24:38.978Z,2.00
2018-04-27T14:27:06.536Z,3.30
2018-04-27T14:29:34.074Z,3.80
2018-04-27T14:32:01.650Z,3.40
2018-04-27T14:34:29.946Z,4.07
2018-04-27T14:36:57.502Z,5.63
2018-04-27T14:39:25.086Z,4.67
2018-04-27T14:41:52.887Z,3.83
2018-04-27T14:44:20.459Z,5.67
2018-04-27T14:46:48.809Z,4.63
2018-04-27T14:49:16.388Z,3.60
2018-04-27T14:51:43.977Z,3.90
2018-04-27T14:54:12.331Z,3.03
2018-04-27T14:56:39.915Z,3.20
2018-04-27T14:59:07.534Z,3.63
2018-04-27T15:01:35.142Z,3.70
2018-04-27T15:04:02.729Z,3.27
2018-04-27T15:06:30.306Z,5.93
2018-04-27T15:09:02.628Z,4.10
2018-04-27T15:11:30.769Z,3.13
2018-04-27T15:13:58.309Z,4.37
2018-04-27T15:16:25.855Z,3.80
2018-04-27T15:18:53.389Z,3.23
2018-04-27T15:21:20.938Z,3.60
2018-04-27T15:23:49.248Z,6.77
2018-04-27T15:26:16.849Z,6.10
2018-04-27T15:28:44.376Z,6.43
2018-04-27T15:31:11.997Z,4.57
2018-04-27T15:33:39.587Z,2.53
2018-04-27T15:36:07.751Z,4.67
2018-04-27T15:38:35.285Z,3.03
2018-04-27T15:41:02.938Z,4.73
2018-04-27T15:43:30.488Z,4.00
2018-04-27T15:45:58.386Z,4.03
2018-04-27T15:48:25.972Z,3.93
2018-04-27T15:50:53.527Z,3.40
2018-04-27T15:53:21.088Z,4.60
2018-04-27T15:55:48.645Z,3.90
2018-04-27T15:58:16.225Z,3.50
2018-04-27T16:00:43.774Z,3.67
2018-04-27T16:03:11.334Z,2.20
2018-04-27T16:05:38.958Z,2.87
2018-04-27T16:08:07.453Z,4.10
2018-04-27T16:10:34.997Z,4.23
2018-04-27T16:13:13.138Z,3.83
2018-04-27T16:15:41.456Z,3.77
2018-04-27T16:18:09.098Z,3.90
2018-04-27T16:20:36.671Z,3.80
2018-04-27T16:23:04.207Z,2.40
2018-04-27T16:25:31.766Z,6.43
2018-04-27T16:27:59.340Z,4.40
2018-04-27T16:30:26.899Z,7.33
2018-04-27T16:32:54.449Z,3.87
2018-04-27T16:35:21.992Z,4.63
2018-04-27T16:37:49.537Z,2.73
2018-04-27T16:40:17.929Z,3.80
2018-04-27T16:42:45.486Z,3.57
2018-04-27T16:45:13.055Z,3.73
2018-04-27T16:47:40.599Z,4.67
2018-04-27T16:50:08.363Z,3.93
2018-04-27T16:52:35.882Z,6.90
2018-04-27T16:55:03.421Z,7.40
2018-04-27T16:57:30.951Z,3.97
2018-04-27T16:59:58.565Z,3.67
2018-04-27T17:02:26.970Z,4.87
2018-04-27T17:04:54.555Z,3.90
2018-04-27T17:07:23.333Z,3.40
2018-04-27T17:09:50.862Z,4.73
2018-04-27T17:12:18.425Z,4.63
2018-04-27T17:14:45.960Z,4.00
2018-04-27T17:17:13.682Z,7.07
2018-04-27T17:19:41.197Z,4.20
2018-04-27T17:22:09.536Z,4.60
2018-04-27T17:24:37.062Z,3.67
2018-04-27T17:27:04.617Z,4.60
2018-04-27T17:29:32.162Z,7.10
2018-04-27T17:32:00.511Z,4.03
2018-04-27T17:34:28.093Z,2.73
2018-04-27T17:36:56.581Z,4.67
2018-04-27T17:39:24.127Z,2.47
2018-04-27T17:41:52.461Z,6.00
2018-04-27T17:44:20.026Z,2.83
2018-04-27T17:46:47.572Z,5.37
2018-04-27T17:49:15.099Z,4.33
2018-04-27T17:51:42.961Z,5.40
2018-04-27T17:54:10.533Z,4.40
2018-04-27T17:56:38.097Z,3.40
2018-04-27T17:59:06.009Z,5.77
2018-04-27T18:01:33.564Z,3.63
2018-04-27T18:04:01.119Z,2.67
2018-04-27T18:06:28.738Z,3.83
2018-04-27T18:08:56.477Z,2.93
2018-04-27T18:11:24.013Z,6.00
2018-04-27T18:13:51.607Z,5.60
2018-04-27T18:16:19.913Z,3.97
2018-04-27T18:18:47.442Z,5.33
2018-04-27T18:21:15.893Z,3.03
2018-04-27T18:23:43.472Z,3.93
2018-04-27T18:26:11.763Z,4.73
2018-04-27T18:28:39.323Z,6.30
2018-04-27T18:31:07.662Z,4.30
2018-04-27T18:33:35.226Z,6.93
2018-04-27T18:36:02.829Z,5.10
2018-04-27T18:38:30.364Z,4.70
2018-04-27T18:40:58.690Z,8.87
2018-04-27T18:43:26.317Z,4.97
2018-04-27T18:45:53.876Z,6.57
2018-04-27T18:48:22.065Z,11.27
2018-04-27T18:50:55.579Z,9.20
2018-04-27T18:53:23.103Z,8.27
2018-04-27T18:55:50.653Z,4.20
2018-04-27T18:58:19.822Z,4.60
2018-04-27T19:00:47.380Z,12.33
2018-04-27T19:03:15.820Z,9.20
2018-04-27T19:05:44.175Z,8.37
2018-04-27T19:08:12.506Z,10.20
2018-04-27T19:10:40.076Z,7.40
2018-04-27T19:13:10.498Z,9.43
2018-04-27T19:15:38.086Z,8.73
2018-04-27T19:18:05.688Z,10.03
2018-04-27T19:20:34.050Z,9.30
2018-04-27T19:23:03.181Z,7.53
2018-04-27T19:25:30.718Z,6.37
2018-04-27T19:27:58.267Z,7.53
2018-04-27T19:30:26.575Z,7.73
2018-04-27T19:32:54.141Z,8.80
2018-04-27T19:35:21.671Z,8.07
2018-04-27T19:37:49.230Z,10.87
2018-04-27T19:40:16.778Z,10.03
2018-04-27T19:42:45.106Z,8.30
2018-04-27T19:45:12.740Z,8.83
2018-04-27T19:47:40.345Z,9.77
2018-04-27T19:50:07.914Z,9.40
2018-04-27T19:52:35.466Z,10.03
2018-04-27T19:55:03.084Z,7.63
2018-04-27T19:57:31.402Z,9.17
2018-04-27T19:59:58.989Z,10.30
2018-04-27T20:02:26.531Z,7.00
2018-04-27T20:04:54.190Z,9.87
2018-04-27T20:07:21.680Z,10.03
2018-04-27T20:09:50.874Z,12.57
2018-04-27T20:12:19.199Z,8.07
2018-04-27T20:14:46.751Z,8.73
2018-04-27T20:17:14.282Z,10.43
2018-04-27T20:19:41.837Z,7.90
2018-04-27T20:22:24.837Z,10.83
2018-04-27T20:24:53.274Z,6.43
2018-04-27T20:27:20.799Z,8.10
2018-04-27T20:29:53.820Z,9.13
2018-04-27T20:32:21.363Z,9.40
2018-04-27T20:34:49.694Z,7.40
2018-04-27T20:37:18.039Z,9.20
2018-04-27T20:39:45.641Z,7.30
2018-04-27T20:42:13.993Z,8.30
2018-04-27T20:44:41.519Z,8.63
2018-04-27T20:47:09.080Z,12.03
2018-04-27T20:49:36.627Z,9.30
2018-04-27T20:52:05.166Z,11.27
2018-04-27T20:54:32.745Z,10.53
2018-04-27T20:57:01.101Z,11.90
2018-04-27T20:59:28.644Z,11.30
2018-04-27T21:01:56.212Z,8.00
2018-04-27T21:04:23.795Z,8.40
2018-04-27T21:06:54.047Z,11.63
2018-04-27T21:09:22.338Z,8.47
2018-04-27T21:11:49.876Z,12.97
2018-04-27T21:14:17.458Z,10.73
2018-04-27T21:16:45.016Z,12.87
2018-04-27T21:19:13.474Z,11.43
2018-04-27T21:21:41.045Z,10.33
2018-04-27T21:24:08.650Z,13.30
2018-04-27T21:26:37.987Z,11.77
2018-04-27T21:29:05.571Z,11.20
2018-04-27T21:31:33.104Z,14.23
2018-04-27T21:34:01.497Z,16.83
2018-04-27T21:36:29.837Z,15.57
2018-04-27T21:39:15.135Z,14.83
2018-04-27T21:41:43.615Z,17.07
2018-04-27T21:44:18.687Z,16.13
2018-04-27T21:46:48.050Z,15.77
2018-04-27T21:49:18.850Z,14.73
2018-04-27T21:51:57.062Z,14.10
2018-04-27T21:54:25.492Z,13.83
2018-04-27T21:57:01.538Z,15.53
2018-04-27T21:59:34.904Z,14.80
2018-04-27T22:02:02.546Z,14.47
2018-04-27T22:04:30.790Z,15.73
2018-04-27T22:06:58.666Z,13.87
2018-04-27T22:09:28.085Z,12.90
2018-04-27T22:11:55.675Z,12.40
2018-04-27T22:14:30.913Z,14.73
2018-04-27T22:17:08.334Z,13.53
2018-04-27T22:19:37.651Z,14.63
2018-04-27T22:22:05.490Z,10.93
2018-04-27T22:27:30.403Z,14.00
2018-04-27T22:30:02.440Z,14.27
2018-04-27T22:32:36.667Z,12.90
2018-04-27T22:35:16.172Z,11.80
2018-04-27T22:37:43.900Z,11.23
2018-04-27T22:43:14.150Z,12.47
2018-04-27T22:45:44.586Z,11.60
2018-04-27T22:48:35.723Z,10.40
2018-04-27T22:51:08.990Z,10.20
2018-04-27T22:53:44.168Z,12.33
2018-04-27T22:59:28.588Z,11.13
2018-04-27T23:04:59.741Z,10.80
2018-04-27T23:07:32.022Z,8.30
2018-04-27T23:09:59.620Z,10.07
2018-04-27T23:12:30.126Z,10.37
2018-04-27T23:14:57.690Z,9.70
2018-04-27T23:17:25.266Z,7.47
2018-04-27T23:19:55.720Z,11.77
2018-04-27T23:22:40.893Z,7.00
2018-04-27T23:25:23.903Z,7.13
2018-04-27T23:27:51.450Z,6.80
2018-04-27T23:30:19.005Z,6.30
2018-04-27T23:32:46.549Z,4.73
2018-04-27T23:35:14.092Z,6.13
2018-04-27T23:37:42.402Z,7.93
2018-04-27T23:40:09.978Z,6.37
2018-04-27T23:42:37.554Z,7.77
2018-04-27T23:45:06.086Z,6.57
2018-04-27T23:47:33.625Z,9.27
2018-04-27T23:50:01.160Z,6.70
2018-04-27T23:52:28.703Z,6.20
2018-04-27T23:54:56.235Z,6.50
2018-04-27T23:57:23.793Z,7.17
2018-04-27T23:59:52.049Z,8.93
